Extrem niedrige Temperatur Gültig von: 13-12-2018 10:40 bis: 15-12-2018 10:00 Warnung für: Extrem niedrige Temperatur Gefahrenstufe: Gelb info button
deutsch:
Es tritt leichter Frost zwischen 0 °C und -5 °C auf. In Tal- und Muldenlagen sinken die Temperaturen auf Werte um -8 °C. 

Besuchen Sie unsere anderen Wetter Stationen:

Template documentation
and downloads

And another site



METAR-Meldungen aus der Umgebung


Warning: A non-numeric value encountered in /is/htdocs/wp10906056_0YHW7Q9XB7/www/weather28/metar/metarDisplay.php on line 166

Warning: A non-numeric value encountered in /is/htdocs/wp10906056_0YHW7Q9XB7/www/weather28/metar/metarDisplay.php on line 166
   
EBAW - Antwerp
Aktualisierung: 13-12-2018 14:20
leicht bewölkt  
leicht bewölkt  
   Wind: Osten 22.2 km/h
Wind: Osten 22.2 km/h
Temperatur: 3°C
Gefühlt: -2°C
Taupunkt: -2°C
Luftfeuchte: 70%
Luftdruck: 1019 hPa
Bewölkt: leicht bewölkt
Sichtbarkeit: More than 10 km
Bewölkung: leicht bewölkt 2400 ft
EBAW 131320Z 10012KT 9999 FEW024 03/M02 Q1019 NOSIG
EBLG - Liège
Aktualisierung: 13-12-2018 14:20
Klar  
Klar  
   Wind: ONO 16.7 km/h
Wind: ONO 16.7 km/h
Temperatur: 2°C
Gefühlt: -2°C
Taupunkt: -4°C
Luftfeuchte: 65%
Luftdruck: 1018 hPa
Sichtbarkeit: More than 10 km
Bewölkung: Klar
EBLG 131320Z 07009KT CAVOK 02/M04 Q1018 NOSIG
EBCV - Mons/Bergen
Aktualisierung: 13-12-2018 14:25
leicht bewölkt  
leicht bewölkt  
   Wind: Osten 18.5 km/h
Wind: Osten 18.5 km/h
Temperatur: 2°C
Gefühlt: -2°C
Taupunkt: -2°C
Luftfeuchte: 75%
Luftdruck: 1018 hPa
Bewölkt: leicht bewölkt
Sichtbarkeit: More than 10 km
Bewölkung: leicht bewölkt 2400 ft
EBCV 131325Z AUTO 09010KT 9999 FEW024/// 02/M02 Q1018 BLU
EHBK - Maastricht
Aktualisierung: 13-12-2018 14:25
Klar  
Klar  
   Wind: Osten 20.4 km/h
Wind: Osten 20.4 km/h
Temperatur: 2°C
Gefühlt: -3°C
Taupunkt: -3°C
Luftfeuchte: 70%
Luftdruck: 1018 hPa
Bewölkt: Klar
Sichtbarkeit: More than 10 km
Bewölkung: Klar
EHBK 131325Z AUTO 10011KT 9999 NCD 02/M03 Q1018 NOSIG
ELLX - Luxemburg
Aktualisierung: 13-12-2018 14:20
Teilweise bewölkt  
Teilweise bewölkt  
   Wind: Osten 20.4 km/h
Wind: Osten 20.4 km/h
Temperatur: 1°C
Gefühlt: -4°C
Taupunkt: -5°C
Luftfeuchte: 65%
Luftdruck: 1015 hPa
Bewölkt: Teilweise bewölkt
Sichtbarkeit: More than 10 km
Bewölkung: leicht bewölkt 2000 ft,
Teilweise bewölkt 2400 ft
ELLX 131320Z 08011KT 040V120 9999 FEW020 SCT024 01/M05 Q1015 NOSIG
EBOS - Oostende
Aktualisierung: 13-12-2018 14:20
leicht bewölkt  
leicht bewölkt  
   Wind: Osten 25.9 km/h
Wind: Osten 25.9 km/h
Temperatur: 3°C
Gefühlt: -2°C
Taupunkt: -2°C
Luftfeuchte: 70%
Luftdruck: 1018 hPa
Bewölkt: leicht bewölkt
Sichtbarkeit: More than 10 km
Bewölkung: leicht bewölkt 1400 ft
EBOS 131320Z 10014KT 9999 FEW014 03/M02 Q1018 NOSIG

Script entwickelt von  Saratoga-weather.org Angepasst für das Template von  Weerstation Leuven

Sie finden unser Wetter-Infos auch auf:

netzwerkwettercom

European Weather Network

WeatherCloud

Weather Underground

AWEKAS

Citizen Weather Observer Program (CWOP)

HAMweather, WeatherForYou, PWS Weather

Von uns verwendete Ausrüstung:

Wetterstation
Davis VP2 Aktiv Plus 6163EU

Wetterprogramm
Weather Display

Davis VP2 Aktiv Plus  6163EU

Weather Display